createdAt,value
2019-03-03T00:07:15.507Z,99253.23
2019-03-03T00:17:20.695Z,99247.77
2019-03-03T00:27:25.772Z,99231.06
2019-03-03T00:37:38.597Z,99214.82
2019-03-03T00:47:51.532Z,99208.36
2019-03-03T00:58:01.229Z,99204.16
2019-03-03T01:08:08.016Z,99171.55
2019-03-03T01:18:14.624Z,99174.20
2019-03-03T01:28:19.713Z,99167.79
2019-03-03T01:38:24.795Z,99158.33
2019-03-03T01:48:29.976Z,99138.92
2019-03-03T01:58:35.055Z,99137.23
2019-03-03T02:08:40.680Z,99117.02
2019-03-03T02:18:46.260Z,99108.03
2019-03-03T02:28:51.301Z,99098.16
2019-03-03T02:38:56.688Z,99096.48
2019-03-03T02:49:01.811Z,99083.17
2019-03-03T02:59:06.984Z,99083.66
2019-03-03T03:09:13.646Z,99073.73
2019-03-03T03:19:23.521Z,99078.52
2019-03-03T03:29:32.852Z,99062.56
2019-03-03T03:39:51.245Z,99054.83
2019-03-03T03:49:58.103Z,99052.27
2019-03-03T04:00:07.473Z,99053.97
2019-03-03T04:10:16.989Z,99034.98
2019-03-03T04:20:23.602Z,99031.97
2019-03-03T04:30:42.220Z,99018.19
2019-03-03T04:40:52.010Z,98980.20
2019-03-03T04:51:02.616Z,98978.48
2019-03-03T05:01:25.454Z,98964.63
2019-03-03T05:11:58.002Z,98961.14
2019-03-03T05:22:03.189Z,98985.73
2019-03-03T05:32:08.512Z,98968.43
2019-03-03T05:42:13.782Z,98964.98
2019-03-03T05:52:18.892Z,98955.43
2019-03-03T06:02:24.133Z,98950.66
2019-03-03T06:12:29.404Z,98934.58
2019-03-03T06:22:34.600Z,98936.98
2019-03-03T06:32:39.791Z,98933.94
2019-03-03T06:42:44.753Z,98931.09
2019-03-03T06:52:49.883Z,98947.39
2019-03-03T07:02:54.959Z,98949.02
2019-03-03T07:13:00.179Z,98929.81
2019-03-03T07:23:05.131Z,98908.17
2019-03-03T07:33:11.717Z,98919.40
2019-03-03T07:43:16.904Z,98920.08
2019-03-03T07:53:22.403Z,98911.55
2019-03-03T08:03:28.439Z,98903.34
2019-03-03T08:13:33.649Z,98899.15
2019-03-03T08:23:39.019Z,98890.16
2019-03-03T08:33:44.200Z,98870.39
2019-03-03T08:43:53.879Z,98865.84
2019-03-03T08:54:01.051Z,98862.02
2019-03-03T09:04:10.928Z,98874.23
2019-03-03T09:14:27.546Z,98843.95
2019-03-03T09:24:37.251Z,98827.23
2019-03-03T09:34:50.026Z,98811.23
2019-03-03T09:44:57.128Z,98814.23
2019-03-03T09:55:06.377Z,98820.30
2019-03-03T10:05:14.289Z,98830.30
2019-03-03T10:15:21.648Z,98810.66
2019-03-03T10:25:31.208Z,98808.01
2019-03-03T10:35:54.189Z,98810.50
2019-03-03T10:46:17.573Z,98797.40
2019-03-03T10:56:31.702Z,98804.80
2019-03-03T11:06:50.855Z,98774.22
2019-03-03T11:17:02.834Z,98745.66
2019-03-03T11:27:11.886Z,98737.30
2019-03-03T11:37:18.522Z,98730.05
2019-03-03T11:47:37.660Z,98727.34
2019-03-03T11:57:46.192Z,98700.05
2019-03-03T12:08:12.942Z,98675.14
2019-03-03T12:18:24.706Z,98682.66
2019-03-03T12:28:31.643Z,98689.22
2019-03-03T12:38:47.781Z,98690.83
2019-03-03T12:48:55.072Z,98682.66
2019-03-03T12:59:01.904Z,98661.05
2019-03-03T13:09:12.174Z,98643.27
2019-03-03T13:19:35.852Z,98630.30
2019-03-03T13:29:48.985Z,98631.56
2019-03-03T13:40:07.634Z,98611.52
2019-03-03T13:50:15.224Z,98600.95
2019-03-03T14:00:22.151Z,98581.78
2019-03-03T14:10:27.657Z,98555.69
2019-03-03T14:20:33.403Z,98555.34
2019-03-03T14:30:40.498Z,98551.55
2019-03-03T14:40:46.032Z,98519.94
2019-03-03T14:50:51.347Z,98526.03
2019-03-03T15:00:57.132Z,98517.17
2019-03-03T15:11:04.353Z,98497.48
2019-03-03T15:31:40.527Z,98515.34
2019-03-03T15:41:46.146Z,98511.14
2019-03-03T15:51:51.429Z,98507.47
2019-03-03T16:01:57.047Z,98511.59
2019-03-03T16:12:02.761Z,98504.45
2019-03-03T16:22:08.013Z,98508.98
2019-03-03T16:32:13.674Z,98506.93
2019-03-03T16:42:19.273Z,98501.17
2019-03-03T16:52:24.750Z,98507.95
2019-03-03T17:02:30.264Z,98517.22
2019-03-03T17:12:35.896Z,98509.28
2019-03-03T17:22:41.460Z,98505.17
2019-03-03T17:32:47.490Z,98499.97
2019-03-03T17:42:53.208Z,98488.08
2019-03-03T17:52:58.652Z,98485.36
2019-03-03T18:13:28.185Z,98464.78
2019-03-03T18:23:33.404Z,98457.27
2019-03-03T18:33:39.007Z,98456.20
2019-03-03T18:43:44.213Z,98453.91
2019-03-03T18:53:49.447Z,98457.02
2019-03-03T19:03:55.428Z,98449.41
2019-03-03T19:14:00.757Z,98446.65
2019-03-03T19:24:06.032Z,98441.02
2019-03-03T19:34:11.215Z,98432.78
2019-03-03T19:44:16.484Z,98428.90
2019-03-03T19:54:21.770Z,98431.59
2019-03-03T20:04:27.013Z,98424.75
2019-03-03T20:14:32.173Z,98425.58
2019-03-03T20:24:37.432Z,98423.83
2019-03-03T20:34:42.903Z,98416.88
2019-03-03T20:44:48.077Z,98390.33
2019-03-03T20:54:53.337Z,98393.87
2019-03-03T21:04:58.611Z,98398.73
2019-03-03T21:15:04.481Z,98379.66
2019-03-03T21:25:11.655Z,98363.09
2019-03-03T21:35:17.791Z,98337.77
2019-03-03T21:45:27.783Z,98332.80
2019-03-03T21:55:32.722Z,98307.91
2019-03-03T22:05:37.679Z,98293.80
2019-03-03T22:15:42.509Z,98295.16
2019-03-03T22:25:47.324Z,98287.58
2019-03-03T22:35:52.071Z,98279.72
2019-03-03T22:45:56.821Z,98273.70
2019-03-03T22:56:01.662Z,98270.20
2019-03-03T23:06:26.129Z,98267.97
2019-03-03T23:16:34.013Z,98265.30
2019-03-03T23:26:38.778Z,98257.66
2019-03-03T23:36:43.598Z,98246.08
2019-03-03T23:46:48.346Z,98230.48
2019-03-03T23:56:53.202Z,98231.58
